Home > Products > Valid Products > MTR

000
SAUS44 KLCH 010654
MTRP92
METAR KP92 010653Z AUTO VRB06KT 14/13 A3026 RMK AO1 SLP246 T01390128





000
SAUS44 KLCH 010554
MTRP92
METAR KP92 010553Z AUTO 11007G15KT 14/12 A3027 RMK AO1 SLP249
T01390122 10172 20133 401890039 58009





000
SAUS44 KLCH 010554
MTRP92
METAR KP92 010553Z AUTO 11007G15KT 14/12 A3027 RMK AO1 SLP249
T01390122 10172 20133 401890039 58009





000
SAUS44 KLCH 010455
MTRP92
METAR KP92 010453Z AUTO 10005KT 14/12 A3028 RMK AO1 SLP253 T01390117





000
SAUS44 KLCH 010455
MTRP92
METAR KP92 010453Z AUTO 10005KT 14/12 A3028 RMK AO1 SLP253 T01390117





000
SAUS44 KLCH 010355
MTRP92
METAR KP92 010353Z AUTO 10007KT 14/11 A3028 RMK AO1 SLP255 T01390111





000
SAUS44 KLCH 010254
MTRP92
METAR KP92 010253Z AUTO VRB04KT 14/11 A3030 RMK AO1 SLP258 T01390111
53015





000
SAUS44 KLCH 010254
MTRP92
METAR KP92 010253Z AUTO VRB04KT 14/11 A3030 RMK AO1 SLP258 T01390111
53015





000
SAUS44 KLCH 010155
MTRP92
METAR KP92 010153Z AUTO VRB06KT 15/11 A3028 RMK AO1 SLP252 T01500111





000
SAUS44 KLCH 010155
MTRP92
METAR KP92 010153Z AUTO VRB06KT 15/11 A3028 RMK AO1 SLP252 T01500111





000
SAUS44 KLCH 010054
MTRP92
METAR KP92 010053Z AUTO VRB04KT 16/11 A3027 RMK AO1 SLP249 T01610111





000
SAUS44 KLCH 010054
MTRP92
METAR KP92 010053Z AUTO VRB04KT 16/11 A3027 RMK AO1 SLP249 T01610111





000
SAUS44 KLCH 282354
MTRP92
METAR KP92 282353Z AUTO 12007KT 17/12 A3025 RMK AO1 SLP243 T01720117
10189 20156 56001





000
SAUS44 KLCH 282354
MTRP92
METAR KP92 282353Z AUTO 12007KT 17/12 A3025 RMK AO1 SLP243 T01720117
10189 20156 56001





000
SAUS44 KLCH 282254
MTRP92
METAR KP92 282253Z AUTO 11005KT 18/12 A3025 RMK AO1 SLP244 T01780117





000
SAUS44 KLCH 282155
MTRP92
METAR KP92 282153Z AUTO 12008KT 18/11 A3025 RMK AO1 SLP242 T01780111





000
SAUS44 KLCH 282054
MTRP92
METAR KP92 282053Z AUTO VRB06KT 19/10 A3025 RMK AO1 SLP244 T01890100
56019





000
SAUS44 KLCH 282054
MTRP92
METAR KP92 282053Z AUTO VRB06KT 19/10 A3025 RMK AO1 SLP244 T01890100
56019





000
SAUS44 KLCH 281955
MTRP92
METAR KP92 281953Z AUTO 11010KT 18/09 A3026 RMK AO1 SLP247 T01830094





000
SAUS44 KLCH 281955
MTRP92
METAR KP92 281953Z AUTO 11010KT 18/09 A3026 RMK AO1 SLP247 T01830094





000
SAUS44 KLCH 281855
MTRP92
METAR KP92 281853Z AUTO 12008G16KT 17/08 A3029 RMK AO1 SLP255
T01720083





000
SAUS44 KLCH 281855
MTRP92
METAR KP92 281853Z AUTO 12008G16KT 17/08 A3029 RMK AO1 SLP255
T01720083





000
SAUS44 KLCH 281754
MTRP92
METAR KP92 281753Z AUTO VRB06G17KT 16/07 A3031 RMK AO1 SLP263
T01560072 10156 20050 58012





000
SAUS44 KLCH 281754
MTRP92
METAR KP92 281753Z AUTO VRB06G17KT 16/07 A3031 RMK AO1 SLP263
T01560072 10156 20050 58012





000
SAUS44 KLCH 281655
MTRP92
METAR KP92 281653Z AUTO 10010G17KT 070V130 14/06 A3032 RMK AO1
SLP267 T01390061





000
SAUS44 KLCH 281655
MTRP92
METAR KP92 281653Z AUTO 10010G17KT 070V130 14/06 A3032 RMK AO1
SLP267 T01390061





000
SAUS44 KLCH 281555
MTRP92
METAR KP92 281553Z AUTO 09007KT 060V130 12/04 A3034 RMK AO1 SLP274
T01170039





000
SAUS44 KLCH 281555
MTRP92
METAR KP92 281553Z AUTO 09007KT 060V130 12/04 A3034 RMK AO1 SLP274
T01170039





000
SAUS44 KLCH 281454
MTRP92
METAR KP92 281453Z AUTO VRB06G17KT 08/02 A3035 RMK AO1 SLP275
T00830017 51007





000
SAUS44 KLCH 281454
MTRP92
METAR KP92 281453Z AUTO VRB06G17KT 08/02 A3035 RMK AO1 SLP275
T00830017 51007





000
SAUS44 KLCH 281354
MTRP92
METAR KP92 281353Z AUTO 07007G15KT 050V120 06/01 A3034 RMK AO1
SLP273 T00610011





000
SAUS44 KLCH 281354
MTRP92
METAR KP92 281353Z AUTO 07007G15KT 050V120 06/01 A3034 RMK AO1
SLP273 T00610011





000
SAUS44 KLCH 281254
MTRP92
METAR KP92 281253Z AUTO 06007KT 05/01 A3034 RMK AO1 SLP274 T00500006





000
SAUS44 KLCH 281254
MTRP92
METAR KP92 281253Z AUTO 06007KT 05/01 A3034 RMK AO1 SLP274 T00500006





000
SAUS44 KLCH 281154
MTRP92
METAR KP92 281153Z AUTO VRB06KT 05/00 A3032 RMK AO1 SLP268 T00500000
10050 20039 55002





000
SAUS44 KLCH 281154
MTRP92
METAR KP92 281153Z AUTO VRB06KT 05/00 A3032 RMK AO1 SLP268 T00500000
10050 20039 55002





000
SAUS44 KLCH 281055
MTRP92
METAR KP92 281053Z AUTO VRB05KT 04/00 A3031 RMK AO1 SLP263 T00390000





000
SAUS44 KLCH 281055
MTRP92
METAR KP92 281053Z AUTO VRB05KT 04/00 A3031 RMK AO1 SLP263 T00390000





000
SAUS44 KLCH 280955
MTRP92
METAR KP92 280953Z AUTO VRB06KT 04/01 A3031 RMK AO1 SLP262 T00390006





000
SAUS44 KLCH 280855
MTRP92
METAR KP92 280853Z AUTO VRB05KT 04/01 A3033 RMK AO1 SLP271 T00440006
58018





000
SAUS44 KLCH 280755
MTRP92
METAR KP92 280753Z AUTO 02005KT 04/01 A3035 RMK AO1 SLP278 T00440011





000
SAUS44 KLCH 280655
MTRP92
METAR KP92 280653Z AUTO 02003KT 04/01 A3038 RMK AO1 SLP286 T00440011





000
SAUS44 KLCH 280655
MTRP92
METAR KP92 280653Z AUTO 02003KT 04/01 A3038 RMK AO1 SLP286 T00440011





000
SAUS44 KLCH 280554
MTRP92
METAR KP92 280553Z AUTO 00000KT 05/01 A3039 RMK AO1 SLP289 T00500011
10106 20050 401220011 50001





000
SAUS44 KLCH 280554
MTRP92
METAR KP92 280553Z AUTO 00000KT 05/01 A3039 RMK AO1 SLP289 T00500011
10106 20050 401220011 50001





000
SAUS44 KLCH 280455
MTRP92
METAR KP92 280453Z AUTO 00000KT 06/02 A3040 RMK AO1 SLP294 T00610017





000
SAUS44 KLCH 280455
MTRP92
METAR KP92 280453Z AUTO 00000KT 06/02 A3040 RMK AO1 SLP294 T00610017





000
SAUS44 KLCH 280354
MTRP92
METAR KP92 280353Z AUTO VRB03KT 07/02 A3039 RMK AO1 SLP291 T00670017





000
SAUS44 KLCH 280255
MTRP92
METAR KP92 280253Z AUTO 00000KT 06/02 A3038 RMK AO1 SLP288 T00610022
53027





000
SAUS44 KLCH 280255
MTRP92
METAR KP92 280253Z AUTO 00000KT 06/02 A3038 RMK AO1 SLP288 T00610022
53027





000
SAUS44 KLCH 280155
MTRP92
METAR KP92 280153Z AUTO 00000KT 07/03 A3036 RMK AO1 SLP279 T00720028





000
SAUS44 KLCH 280155
MTRP92
METAR KP92 280153Z AUTO 00000KT 07/03 A3036 RMK AO1 SLP279 T00720028





000
SAUS44 KLCH 280055
MTRP92
METAR KP92 280053Z AUTO 00000KT 08/03 A3032 RMK AO1 SLP266 T00780033





000
SAUS44 KLCH 280055
MTRP92
METAR KP92 280053Z AUTO 00000KT 08/03 A3032 RMK AO1 SLP266 T00780033





000
SAUS44 KLCH 272354
MTRP92
METAR KP92 272353Z AUTO VRB03KT 11/02 A3030 RMK AO1 SLP261 T01060017
10122 20089 53005





000
SAUS44 KLCH 272354
MTRP92
METAR KP92 272353Z AUTO VRB03KT 11/02 A3030 RMK AO1 SLP261 T01060017
10122 20089 53005





000
SAUS44 KLCH 272254
MTRP92
METAR KP92 272253Z AUTO 12/01 A3028 RMK AO1 SLP255 T01220011





000
SAUS44 KLCH 272254
MTRP92
METAR KP92 272253Z AUTO 12/01 A3028 RMK AO1 SLP255 T01220011





000
SAUS44 KLCH 272154
MTRP92
METAR KP92 272153Z AUTO VRB04KT 12/02 A3027 RMK AO1 SLP250 T01220017





000
SAUS44 KLCH 272055
MTRP92
METAR KP92 272053Z AUTO VRB05KT 11/01 A3029 RMK AO1 SLP256 T01110011
56022





000
SAUS44 KLCH 272055
MTRP92
METAR KP92 272053Z AUTO VRB05KT 11/01 A3029 RMK AO1 SLP256 T01110011
56022





000
SAUS44 KLCH 271955
MTRP92
METAR KP92 271953Z AUTO VRB06KT 12/01 A3030 RMK AO1 SLP259 T01170011





000
SAUS44 KLCH 271855
MTRP92
METAR KP92 271853Z AUTO 10007KT 060V130 11/01 A3031 RMK AO1 SLP264
T01060011





000
SAUS44 KLCH 271855
MTRP92
METAR KP92 271853Z AUTO 10007KT 060V130 11/01 A3031 RMK AO1 SLP264
T01060011





000
SAUS44 KLCH 271754
MTRP92
METAR KP92 271753Z AUTO VRB03KT 09/01 A3035 RMK AO1 SLP278 T00890006
10089 20011 58008





000
SAUS44 KLCH 271754
MTRP92
METAR KP92 271753Z AUTO VRB03KT 09/01 A3035 RMK AO1 SLP278 T00890006
10089 20011 58008





000
SAUS44 KLCH 271654
MTRP92
METAR KP92 271653Z AUTO VRB06KT 07/01 A3037 RMK AO1 SLP283 T00720006





000
SAUS44 KLCH 271654
MTRP92
METAR KP92 271653Z AUTO VRB06KT 07/01 A3037 RMK AO1 SLP283 T00720006





000
SAUS44 KLCH 271554
MTRP92
METAR KP92 271553Z AUTO 07008G14KT 350V130 06/00 A3039 RMK AO1
SLP290 T00560000





000
SAUS44 KLCH 271454
MTRP92
METAR KP92 271453Z AUTO VRB06KT 04/00 A3038 RMK AO1 SLP286 T00440000
53010





000
SAUS44 KLCH 271454
MTRP92
METAR KP92 271453Z AUTO VRB06KT 04/00 A3038 RMK AO1 SLP286 T00440000
53010





000
SAUS44 KLCH 271354
MTRP92
METAR KP92 271353Z AUTO VRB06KT 03/M01 A3036 RMK AO1 SLP281
T00281006





000
SAUS44 KLCH 271354
MTRP92
METAR KP92 271353Z AUTO VRB06KT 03/M01 A3036 RMK AO1 SLP281
T00281006





000
SAUS44 KLCH 271254
MTRP92
METAR KP92 271253Z AUTO VRB04KT 02/M01 A3035 RMK AO1 SLP278
T00171006





000
SAUS44 KLCH 271155
MTRP92
METAR KP92 271153Z AUTO VRB03KT 02/M01 A3035 RMK AO1 SLP277
T00171006 10039 20017 53025





000
SAUS44 KLCH 271055
MTRP92
METAR KP92 271053Z AUTO 03005KT 02/M01 A3030 RMK AO1 SLP260
T00171006





000
SAUS44 KLCH 270955
MTRP92
METAR KP92 270953Z AUTO 01004KT 02/M01 A3030 RMK AO1 PRESRR SLP261
T00221006





000
SAUS44 KLCH 270855
MTRP92
METAR KP92 270853Z AUTO VRB04KT 02/00 A3028 RMK AO1 SLP252 T00220000
50004





000
SAUS44 KLCH 270754
MTRP92
METAR KP92 270753Z AUTO 02006KT 03/00 A3029 RMK AO1 SLP258 T00280000





000
SAUS44 KLCH 270654
MTRP92
METAR KP92 270653Z AUTO 01007KT 03/01 A3028 RMK AO1 SLP254 T00330006





000
SAUS44 KLCH 270555
MTRP92
METAR KP92 270553Z AUTO VRB05KT 04/01 A3027 RMK AO1 SLP248 T00390011
10094 20039 401060028 52012





000
SAUS44 KLCH 270455
MTRP92
METAR KP92 270453Z AUTO 36007KT 05/01 A3026 RMK AO1 SLP245 T00500011





000
SAUS44 KLCH 270455
MTRP92
METAR KP92 270453Z AUTO 36007KT 05/01 A3026 RMK AO1 SLP245 T00500011





000
SAUS44 KLCH 270354
MTRP92
METAR KP92 270353Z AUTO 36006KT 06/02 A3024 RMK AO1 SLP240 T00610017





000
SAUS44 KLCH 270254
MTRP92
METAR KP92 270253Z AUTO 36005KT 07/02 A3023 RMK AO1 SLP237 T00720017
53031





000
SAUS44 KLCH 270154
MTRP92
METAR KP92 270153Z AUTO 35007KT 08/02 A3019 RMK AO1 SLP224 T00780022





000
SAUS44 KLCH 270055
MTRP92
METAR KP92 270053Z AUTO 36004KT 08/02 A3016 RMK AO1 SLP211 T00830022





000
SAUS44 KLCH 262355
MTRP92
METAR KP92 262353Z AUTO 01004KT 09/02 A3014 RMK AO1 SLP205 T00940017
10106 20056 53018





000
SAUS44 KLCH 262255
MTRP92
METAR KP92 262253Z AUTO 01008KT 10/01 A3012 RMK AO1 SLP197 T01000011





000
SAUS44 KLCH 262255
MTRP92
METAR KP92 262253Z AUTO 01008KT 10/01 A3012 RMK AO1 SLP197 T01000011





000
SAUS44 KLCH 261954
MTRP92
METAR KP92 261953Z AUTO 01009G15KT 340V050 09/02 A3008 RMK AO1
SLP186 T00940022





000
SAUS44 KLCH 261855
MTRP92
METAR KP92 261853Z AUTO 01010G14KT 08/02 A3009 RMK AO1 SLP189
T00780022





000
SAUS44 KLCH 261755
MTRP92
METAR KP92 261753Z AUTO 34008KT 06/02 A3010 RMK AO1 SLP191 T00610017
10061 20028 51006





000
SAUS44 KLCH 261655
MTRP92
METAR KP92 261653Z AUTO 35008KT 04/01 A3009 RMK AO1 SLP190 T00440011





000
SAUS44 KLCH 261655
MTRP92
METAR KP92 261653Z AUTO 35008KT 04/01 A3009 RMK AO1 SLP190 T00440011





000
SAUS44 KLCH 261555
MTRP92
METAR KP92 261553Z AUTO VRB06KT 03/01 A3010 RMK AO1 SLP191 T00330006





000
SAUS44 KLCH 261254
MTRP92
METAR KP92 261253Z AUTO 36006KT 03/01 A3000 RMK AO1 SLP160 T00280006





000
SAUS44 KLCH 261254
MTRP92
METAR KP92 261253Z AUTO 36006KT 03/01 A3000 RMK AO1 SLP160 T00280006





000
SAUS44 KLCH 261154
MTRP92
METAR KP92 261153Z AUTO VRB06KT 03/01 A2996 RMK AO1 SLP144 70040
T00280006 10044 20028 53018





000
SAUS44 KLCH 261154
MTRP92
METAR KP92 261153Z AUTO VRB06KT 03/01 A2996 RMK AO1 SLP144 70040
T00280006 10044 20028 53018





000
SAUS44 KLCH 261055
MTRP92
METAR KP92 261053Z AUTO VRB05KT 03/01 A2992 RMK AO1 SLP132 T00280011





000
SAUS44 KLCH 261055
MTRP92
METAR KP92 261053Z AUTO VRB05KT 03/01 A2992 RMK AO1 SLP132 T00280011





000
SAUS44 KLCH 260954
MTRP92
METAR KP92 260953Z AUTO 35008KT 03/01 A2991 RMK AO1 SLP128 T00330011





000
SAUS44 KLCH 260954
MTRP92
METAR KP92 260953Z AUTO 35008KT 03/01 A2991 RMK AO1 SLP128 T00330011





000
SAUS44 KLCH 260854
MTRP92
METAR KP92 260853Z AUTO 01006KT 03/02 A2990 RMK AO1 SLP126 T00330017
58002





000
SAUS44 KLCH 260854
MTRP92
METAR KP92 260853Z AUTO 01006KT 03/02 A2990 RMK AO1 SLP126 T00330017
58002





000
SAUS44 KLCH 260754
MTRP92
METAR KP92 260753Z AUTO 34007KT 03/02 A2991 RMK AO1 SLP129 T00330017





    US Dept of Commerce
    National Oceanic and Atmospheric Administration
    National Weather Service
    1325 East West Highway
    Silver Spring, MD 20910
    Page Author: NWS Internet Services Team
Disclaimer
Information Quality
Credits
Glossary
Privacy Policy
Freedom of Information Act (FOIA)
About Us
Career Opportunities